Detall de PIREP

Printer-friendly versionPDF version

[2011/01/07 18:37:00]
Flight IATA:CT1004
Pilot Number:042
Company ICAO:CAT
Aircraft Type:B744/E
PAX:290
Departing Airport: HECA
Destination Airport: LEBL
Alternate Airport:LEPA
Online: VATSIM
Route:DCT MENKU A1 METRU UP868 ARLOS UM871 TIMBI UN4 AMIBO UP167 GINOX UM601 VERSO
Flight Level:FL370
No Slew and time accel
No pause
Crash detect
Detect pilot in Cockpit between each 30 and 45 minutes
18:37 Zero fuel Weight: 466688 Lbs, Fuel Weight: 252731 Lbs
18:37 VATSIM:HECA 071800Z 35004KT 9999 SCT025 15/10 Q1022 NOSIG
18:37 VATSIM:LEBL 071800Z 22007KT 9999 FEW025 13/12 Q1015 NOSIG
18:37 VOICE CATALONIAN/X-MAS CHARTER
18:43 Parking Brakes off
18:50 Take-off
18:50 Take off Weight: 830053 Lbs
18:50 Wind: 347 @ 004 Knots Heading: 230
18:50 POS N30 07 19 E031 23 00
18:50 Gear Up: 169 Knots
18:50 Flaps:4 at 169 Knots
18:50 Flaps:3 at 177 Knots
18:50 Flaps:2 at 186 Knots
18:50 Flaps:1 at 209 Knots
18:52 Flaps:0 at 231 Knots
19:05 Wind:328@023 Knots Heading: 317 Ground Speed: 434 Knots Altitude 24714 ft
19:20 Wind:295@031 Knots Heading: 304 Ground Speed: 450 Knots Altitude 32939 ft
19:32 TOC
19:32 Fuel Weight: 219730 Lb
19:35 Wind:270@046 Knots Heading: 301 Ground Speed: 429 Knots Altitude 37329 ft
19:50 Wind:327@036 Knots Heading: 292 Ground Speed: 443 Knots Altitude 37368 ft
20:05 Wind:355@053 Knots Heading: 291 Ground Speed: 473 Knots Altitude 37401 ft
20:20 Wind:353@045 Knots Heading: 304 Ground Speed: 463 Knots Altitude 37421 ft
20:35 Wind:343@046 Knots Heading: 303 Ground Speed: 465 Knots Altitude 37417 ft
20:50 Wind:316@033 Knots Heading: 301 Ground Speed: 473 Knots Altitude 37395 ft
21:01 TOD
21:01 Fuel Weight: 178950 Lb
21:05 Wind:305@028 Knots Heading: 298 Ground Speed: 447 Knots Altitude 35426ft
21:20 Wind:286@029 Knots Heading: 296 Ground Speed: 448 Knots Altitude 34347 ft
21:35 Wind:269@039 Knots Heading: 293 Ground Speed: 443 Knots Altitude 34261 ft
21:50 Wind:247@046 Knots Heading: 270 Ground Speed: 434 Knots Altitude 34235 ft
22:05 Wind:243@055 Knots Heading: 274 Ground Speed: 430 Knots Altitude 34137 ft
22:20 Wind:233@033 Knots Heading: 273 Ground Speed: 310 Knots Altitude 16922 ft
22:23 Flaps:1 at 228 Knots
22:27 Flaps:2 at 190 Knots
22:28 Flaps:3 at 188 Knots
22:33 Gear Down: 179 Knots
22:33 Flaps:4 at 175 Knots
22:33 Flaps:5 at 174 Knots
22:33 Flaps:6 at 168 Knots
22:35 Wind:002@002 Knots Heading: 246 Ground Speed: 164 Knots Altitude 2106 ft
22:37 TouchDown:Rate -140 ft/min Speed: 144 Knots
22:37 VATSIM:LEBL 072200Z VRB02KT 9999 FEW025 11/10 Q1016 NOSIG
22:37 Land
22:37 Wind:000@000 Knots
22:37 Heading: 245
22:37 Flight Duration: 03:47
22:37 Landing Weight: 719954 Lbs
22:37 POS N41 17 12 E002 05 13
22:41 Parking brakes on
22:41 Block to Block Duration: 03:58
22:41 Final Fuel: 139367 Lbls
22:41 Spent Fuel: 113364 Lbls
22:41 Flight Length: 1505 NM
22:41 TOD Land Length: 537 NM

Exportar CSV

Powered by Drupal - Modified by Danger4k